sensor_id;sensor_type;location;lat;lon;timestamp;pressure;altitude;pressure_sealevel;temperature;humidity
73242;BME280;65659;49.234;-2.094;2023-07-30T00:02:12;100296.87;;;19.19;50.48
73242;BME280;65659;49.234;-2.094;2023-07-30T00:04:38;100296.01;;;19.35;50.10
73242;BME280;65659;49.234;-2.094;2023-07-30T00:07:04;100297.83;;;19.24;50.21
73242;BME280;65659;49.234;-2.094;2023-07-30T00:09:29;100297.91;;;19.26;50.13
73242;BME280;65659;49.234;-2.094;2023-07-30T00:11:55;100302.81;;;19.31;50.11
73242;BME280;65659;49.234;-2.094;2023-07-30T00:14:20;100303.70;;;19.40;50.52
73242;BME280;65659;49.234;-2.094;2023-07-30T00:16:46;100297.73;;;19.25;50.33
73242;BME280;65659;49.234;-2.094;2023-07-30T00:19:11;100299.29;;;19.47;50.26
73242;BME280;65659;49.234;-2.094;2023-07-30T00:21:37;100290.72;;;19.04;50.08
73242;BME280;65659;49.234;-2.094;2023-07-30T00:24:02;100291.19;;;19.16;50.32
73242;BME280;65659;49.234;-2.094;2023-07-30T00:26:28;100290.18;;;19.34;50.42
73242;BME280;65659;49.234;-2.094;2023-07-30T00:28:54;100288.61;;;19.39;50.48
73242;BME280;65659;49.234;-2.094;2023-07-30T00:31:19;100284.44;;;19.08;50.46
73242;BME280;65659;49.234;-2.094;2023-07-30T00:33:45;100284.14;;;18.96;50.86
73242;BME280;65659;49.234;-2.094;2023-07-30T00:36:11;100287.52;;;19.08;51.10
73242;BME280;65659;49.234;-2.094;2023-07-30T00:38:36;100288.76;;;19.05;51.36
73242;BME280;65659;49.234;-2.094;2023-07-30T00:41:01;100292.76;;;19.15;51.54
73242;BME280;65659;49.234;-2.094;2023-07-30T00:43:27;100289.41;;;18.61;51.78
73242;BME280;65659;49.234;-2.094;2023-07-30T00:45:53;100287.32;;;19.15;51.87
73242;BME280;65659;49.234;-2.094;2023-07-30T00:48:18;100289.48;;;19.11;52.08
73242;BME280;65659;49.234;-2.094;2023-07-30T00:50:44;100287.77;;;19.16;52.00
73242;BME280;65659;49.234;-2.094;2023-07-30T00:53:11;100284.04;;;19.04;52.20
73242;BME280;65659;49.234;-2.094;2023-07-30T00:55:35;100287.10;;;19.21;51.92
73242;BME280;65659;49.234;-2.094;2023-07-30T00:58:01;100279.24;;;19.01;51.98
73242;BME280;65659;49.234;-2.094;2023-07-30T01:00:27;100288.42;;;18.97;52.23
73242;BME280;65659;49.234;-2.094;2023-07-30T01:02:52;100289.33;;;19.29;52.19
73242;BME280;65659;49.234;-2.094;2023-07-30T01:05:18;100288.82;;;19.17;52.47
73242;BME280;65659;49.234;-2.094;2023-07-30T01:07:42;100296.87;;;19.31;52.28
73242;BME280;65659;49.234;-2.094;2023-07-30T01:10:09;100295.55;;;19.43;52.01
73242;BME280;65659;49.234;-2.094;2023-07-30T01:12:34;100297.05;;;19.31;52.06
73242;BME280;65659;49.234;-2.094;2023-07-30T01:15:00;100294.45;;;18.79;51.70
73242;BME280;65659;49.234;-2.094;2023-07-30T01:17:25;100296.62;;;19.22;51.25
73242;BME280;65659;49.234;-2.094;2023-07-30T01:19:53;100298.34;;;19.26;50.81
73242;BME280;65659;49.234;-2.094;2023-07-30T01:22:17;100298.44;;;19.10;50.55
73242;BME280;65659;49.234;-2.094;2023-07-30T01:24:48;100295.13;;;19.23;51.01
73242;BME280;65659;49.234;-2.094;2023-07-30T01:27:14;100297.39;;;18.95;51.41
73242;BME280;65659;49.234;-2.094;2023-07-30T01:29:40;100296.09;;;18.86;51.94
73242;BME280;65659;49.234;-2.094;2023-07-30T01:32:04;100296.24;;;18.68;52.59
73242;BME280;65659;49.234;-2.094;2023-07-30T01:34:27;100298.35;;;18.81;53.14
73242;BME280;65659;49.234;-2.094;2023-07-30T01:36:51;100298.10;;;18.50;54.17
73242;BME280;65659;49.234;-2.094;2023-07-30T01:39:16;100290.57;;;18.26;54.97
73242;BME280;65659;49.234;-2.094;2023-07-30T01:41:42;100300.20;;;18.39;54.87
73242;BME280;65659;49.234;-2.094;2023-07-30T01:44:08;100302.98;;;18.05;55.27
73242;BME280;65659;49.234;-2.094;2023-07-30T01:46:33;100305.21;;;18.41;55.07
73242;BME280;65659;49.234;-2.094;2023-07-30T01:48:59;100302.70;;;18.62;55.37
73242;BME280;65659;49.234;-2.094;2023-07-30T01:51:24;100310.81;;;18.16;55.92
73242;BME280;65659;49.234;-2.094;2023-07-30T01:53:50;100304.81;;;18.15;55.39
73242;BME280;65659;49.234;-2.094;2023-07-30T01:56:15;100303.91;;;18.48;54.77
73242;BME280;65659;49.234;-2.094;2023-07-30T01:58:40;100306.26;;;18.14;54.41
73242;BME280;65659;49.234;-2.094;2023-07-30T02:01:06;100307.58;;;18.02;54.20
73242;BME280;65659;49.234;-2.094;2023-07-30T02:03:31;100301.38;;;17.91;54.22
73242;BME280;65659;49.234;-2.094;2023-07-30T02:05:57;100303.70;;;18.39;54.16
73242;BME280;65659;49.234;-2.094;2023-07-30T02:08:23;100301.30;;;18.32;54.35
73242;BME280;65659;49.234;-2.094;2023-07-30T02:10:55;100299.80;;;17.82;54.51
73242;BME280;65659;49.234;-2.094;2023-07-30T02:13:14;100298.15;;;17.90;54.47
73242;BME280;65659;49.234;-2.094;2023-07-30T02:15:40;100299.97;;;18.20;54.45
73242;BME280;65659;49.234;-2.094;2023-07-30T02:18:06;100297.43;;;17.79;55.06
73242;BME280;65659;49.234;-2.094;2023-07-30T02:20:31;100302.09;;;18.15;54.90
73242;BME280;65659;49.234;-2.094;2023-07-30T02:22:56;100300.21;;;17.81;55.11
73242;BME280;65659;49.234;-2.094;2023-07-30T02:25:22;100298.95;;;17.80;54.12
73242;BME280;65659;49.234;-2.094;2023-07-30T02:27:47;100301.07;;;17.78;53.37
73242;BME280;65659;49.234;-2.094;2023-07-30T02:30:13;100303.58;;;17.72;53.05
73242;BME280;65659;49.234;-2.094;2023-07-30T02:32:38;100299.31;;;18.23;52.80
73242;BME280;65659;49.234;-2.094;2023-07-30T02:35:04;100305.98;;;18.12;52.69
73242;BME280;65659;49.234;-2.094;2023-07-30T02:37:29;100313.88;;;17.78;52.94
73242;BME280;65659;49.234;-2.094;2023-07-30T02:39:55;100316.46;;;17.86;53.11
73242;BME280;65659;49.234;-2.094;2023-07-30T02:42:26;100309.70;;;18.09;53.40
73242;BME280;65659;49.234;-2.094;2023-07-30T02:44:47;100307.47;;;18.31;53.24
73242;BME280;65659;49.234;-2.094;2023-07-30T02:47:12;100304.48;;;18.24;53.61
73242;BME280;65659;49.234;-2.094;2023-07-30T02:49:38;100315.09;;;18.25;53.80
73242;BME280;65659;49.234;-2.094;2023-07-30T02:52:05;100313.54;;;18.21;54.13
73242;BME280;65659;49.234;-2.094;2023-07-30T02:54:29;100312.01;;;18.38;54.04
73242;BME280;65659;49.234;-2.094;2023-07-30T02:56:55;100316.22;;;18.14;54.32
73242;BME280;65659;49.234;-2.094;2023-07-30T02:59:20;100308.44;;;18.02;54.23
73242;BME280;65659;49.234;-2.094;2023-07-30T03:01:45;100308.08;;;18.52;54.18
73242;BME280;65659;49.234;-2.094;2023-07-30T03:04:11;100309.21;;;18.17;53.92
73242;BME280;65659;49.234;-2.094;2023-07-30T03:06:36;100305.41;;;18.14;53.78
73242;BME280;65659;49.234;-2.094;2023-07-30T03:09:02;100315.16;;;18.29;53.47
73242;BME280;65659;49.234;-2.094;2023-07-30T03:11:27;100315.82;;;18.36;53.30
73242;BME280;65659;49.234;-2.094;2023-07-30T03:13:54;100316.12;;;18.27;53.13
73242;BME280;65659;49.234;-2.094;2023-07-30T03:16:18;100316.52;;;18.44;52.72
73242;BME280;65659;49.234;-2.094;2023-07-30T03:18:49;100319.12;;;18.52;52.11
73242;BME280;65659;49.234;-2.094;2023-07-30T03:21:10;100322.77;;;18.24;51.84
73242;BME280;65659;49.234;-2.094;2023-07-30T03:23:35;100328.09;;;18.45;51.43
73242;BME280;65659;49.234;-2.094;2023-07-30T03:26:01;100325.39;;;18.63;51.46
73242;BME280;65659;49.234;-2.094;2023-07-30T03:28:26;100331.31;;;18.34;51.67
73242;BME280;65659;49.234;-2.094;2023-07-30T03:30:52;100330.66;;;18.34;51.78
73242;BME280;65659;49.234;-2.094;2023-07-30T03:33:17;100332.81;;;18.22;52.17
73242;BME280;65659;49.234;-2.094;2023-07-30T03:35:43;100336.11;;;18.19;52.38
73242;BME280;65659;49.234;-2.094;2023-07-30T03:38:08;100340.70;;;18.35;52.13
73242;BME280;65659;49.234;-2.094;2023-07-30T03:40:34;100338.11;;;18.14;52.57
73242;BME280;65659;49.234;-2.094;2023-07-30T03:43:00;100343.82;;;18.72;52.45
73242;BME280;65659;49.234;-2.094;2023-07-30T03:45:25;100350.30;;;18.12;52.69
73242;BME280;65659;49.234;-2.094;2023-07-30T03:47:51;100349.15;;;18.28;52.45
73242;BME280;65659;49.234;-2.094;2023-07-30T03:50:17;100348.90;;;18.30;52.47
73242;BME280;65659;49.234;-2.094;2023-07-30T03:52:42;100343.59;;;18.25;52.43
73242;BME280;65659;49.234;-2.094;2023-07-30T03:55:07;100341.46;;;18.28;52.50
73242;BME280;65659;49.234;-2.094;2023-07-30T03:57:33;100344.42;;;18.57;52.43
73242;BME280;65659;49.234;-2.094;2023-07-30T03:59:59;100350.85;;;18.28;52.60
73242;BME280;65659;49.234;-2.094;2023-07-30T04:02:24;100348.86;;;18.36;52.52
73242;BME280;65659;49.234;-2.094;2023-07-30T04:04:50;100350.92;;;18.33;52.77
73242;BME280;65659;49.234;-2.094;2023-07-30T04:07:15;100352.85;;;18.32;52.90
73242;BME280;65659;49.234;-2.094;2023-07-30T04:09:41;100351.62;;;18.32;53.04
73242;BME280;65659;49.234;-2.094;2023-07-30T04:12:07;100351.95;;;18.39;53.06
73242;BME280;65659;49.234;-2.094;2023-07-30T04:14:32;100356.09;;;18.39;53.25
73242;BME280;65659;49.234;-2.094;2023-07-30T04:16:57;100354.86;;;18.49;53.14
73242;BME280;65659;49.234;-2.094;2023-07-30T04:19:23;100362.54;;;18.56;53.57
73242;BME280;65659;49.234;-2.094;2023-07-30T04:21:49;100367.08;;;18.38;53.45
73242;BME280;65659;49.234;-2.094;2023-07-30T04:24:14;100363.50;;;18.49;53.51
73242;BME280;65659;49.234;-2.094;2023-07-30T04:26:40;100363.87;;;18.58;53.34
73242;BME280;65659;49.234;-2.094;2023-07-30T04:29:05;100359.68;;;18.41;53.14
73242;BME280;65659;49.234;-2.094;2023-07-30T04:31:30;100354.01;;;18.40;53.02
73242;BME280;65659;49.234;-2.094;2023-07-30T04:33:55;100353.45;;;18.17;52.96
73242;BME280;65659;49.234;-2.094;2023-07-30T04:36:22;100357.39;;;18.40;52.84
73242;BME280;65659;49.234;-2.094;2023-07-30T04:38:47;100360.99;;;18.69;52.62
73242;BME280;65659;49.234;-2.094;2023-07-30T04:41:13;100364.90;;;18.36;52.74
73242;BME280;65659;49.234;-2.094;2023-07-30T04:43:38;100368.20;;;18.44;52.42
73242;BME280;65659;49.234;-2.094;2023-07-30T04:46:04;100370.50;;;18.35;52.53
73242;BME280;65659;49.234;-2.094;2023-07-30T04:48:29;100369.55;;;18.52;52.24
73242;BME280;65659;49.234;-2.094;2023-07-30T04:50:55;100368.22;;;18.50;52.28
73242;BME280;65659;49.234;-2.094;2023-07-30T04:53:20;100371.97;;;18.30;52.39
73242;BME280;65659;49.234;-2.094;2023-07-30T04:55:46;100372.76;;;18.59;52.38
73242;BME280;65659;49.234;-2.094;2023-07-30T04:58:12;100376.99;;;18.55;52.48
73242;BME280;65659;49.234;-2.094;2023-07-30T05:00:37;100372.47;;;18.57;52.38
73242;BME280;65659;49.234;-2.094;2023-07-30T05:03:03;100374.13;;;18.34;52.36
73242;BME280;65659;49.234;-2.094;2023-07-30T05:05:28;100384.39;;;18.44;52.53
73242;BME280;65659;49.234;-2.094;2023-07-30T05:07:54;100380.36;;;18.43;52.67
73242;BME280;65659;49.234;-2.094;2023-07-30T05:10:19;100384.55;;;18.46;52.63
73242;BME280;65659;49.234;-2.094;2023-07-30T05:12:44;100385.27;;;18.59;52.48
73242;BME280;65659;49.234;-2.094;2023-07-30T05:15:10;100385.43;;;18.67;52.29
73242;BME280;65659;49.234;-2.094;2023-07-30T05:17:35;100386.72;;;18.84;51.84
73242;BME280;65659;49.234;-2.094;2023-07-30T05:20:00;100385.22;;;18.72;52.07
73242;BME280;65659;49.234;-2.094;2023-07-30T05:22:26;100373.94;;;18.63;52.11
73242;BME280;65659;49.234;-2.094;2023-07-30T05:24:52;100388.80;;;18.68;51.97
73242;BME280;65659;49.234;-2.094;2023-07-30T05:27:17;100390.94;;;18.63;52.02
73242;BME280;65659;49.234;-2.094;2023-07-30T05:29:44;100393.36;;;18.62;52.09
73242;BME280;65659;49.234;-2.094;2023-07-30T05:32:09;100386.98;;;18.66;51.91
73242;BME280;65659;49.234;-2.094;2023-07-30T05:34:34;100387.29;;;18.59;51.87
73242;BME280;65659;49.234;-2.094;2023-07-30T05:37:01;100383.22;;;18.61;51.92
73242;BME280;65659;49.234;-2.094;2023-07-30T05:39:25;100385.48;;;18.64;52.08
73242;BME280;65659;49.234;-2.094;2023-07-30T05:41:50;100387.64;;;18.58;52.51
73242;BME280;65659;49.234;-2.094;2023-07-30T05:44:16;100389.62;;;18.64;52.48
73242;BME280;65659;49.234;-2.094;2023-07-30T05:46:42;100395.38;;;18.68;52.64
73242;BME280;65659;49.234;-2.094;2023-07-30T05:49:07;100389.42;;;18.74;52.73
73242;BME280;65659;49.234;-2.094;2023-07-30T05:51:32;100399.70;;;18.62;52.86
73242;BME280;65659;49.234;-2.094;2023-07-30T05:53:58;100399.31;;;18.69;52.77
73242;BME280;65659;49.234;-2.094;2023-07-30T05:56:23;100397.75;;;18.70;52.52
73242;BME280;65659;49.234;-2.094;2023-07-30T05:58:49;100395.54;;;18.86;52.18
73242;BME280;65659;49.234;-2.094;2023-07-30T06:01:15;100393.45;;;18.58;51.86
73242;BME280;65659;49.234;-2.094;2023-07-30T06:03:40;100393.63;;;18.88;51.50
73242;BME280;65659;49.234;-2.094;2023-07-30T06:06:06;100397.07;;;19.02;51.51
73242;BME280;65659;49.234;-2.094;2023-07-30T06:08:32;100394.36;;;19.14;51.58
73242;BME280;65659;49.234;-2.094;2023-07-30T06:11:00;100407.96;;;18.85;51.82
73242;BME280;65659;49.234;-2.094;2023-07-30T06:13:22;100392.71;;;19.16;51.88
73242;BME280;65659;49.234;-2.094;2023-07-30T06:15:48;100399.07;;;19.29;51.84
73242;BME280;65659;49.234;-2.094;2023-07-30T06:18:13;100404.97;;;19.49;51.63
73242;BME280;65659;49.234;-2.094;2023-07-30T06:20:39;100407.80;;;19.16;51.77
73242;BME280;65659;49.234;-2.094;2023-07-30T06:23:05;100411.63;;;19.26;51.72
73242;BME280;65659;49.234;-2.094;2023-07-30T06:25:30;100409.34;;;19.20;51.70
73242;BME280;65659;49.234;-2.094;2023-07-30T06:27:55;100411.69;;;19.10;51.43
73242;BME280;65659;49.234;-2.094;2023-07-30T06:30:21;100414.52;;;19.36;51.31
73242;BME280;65659;49.234;-2.094;2023-07-30T06:32:47;100416.05;;;19.28;51.13
73242;BME280;65659;49.234;-2.094;2023-07-30T06:35:12;100413.44;;;19.16;51.06
73242;BME280;65659;49.234;-2.094;2023-07-30T06:37:38;100421.80;;;19.67;50.60
73242;BME280;65659;49.234;-2.094;2023-07-30T06:40:05;100422.57;;;19.48;50.72
73242;BME280;65659;49.234;-2.094;2023-07-30T06:42:29;100429.51;;;19.59;50.53
73242;BME280;65659;49.234;-2.094;2023-07-30T06:44:55;100427.04;;;19.59;50.56
73242;BME280;65659;49.234;-2.094;2023-07-30T06:47:20;100430.88;;;19.30;50.80
73242;BME280;65659;49.234;-2.094;2023-07-30T06:49:46;100433.64;;;19.63;50.90
73242;BME280;65659;49.234;-2.094;2023-07-30T06:52:12;100440.23;;;19.75;50.65
73242;BME280;65659;49.234;-2.094;2023-07-30T06:54:37;100435.86;;;19.64;50.88
73242;BME280;65659;49.234;-2.094;2023-07-30T06:57:03;100435.93;;;19.82;50.84
73242;BME280;65659;49.234;-2.094;2023-07-30T06:59:28;100434.12;;;19.87;50.79
73242;BME280;65659;49.234;-2.094;2023-07-30T07:01:54;100436.09;;;19.80;50.81
73242;BME280;65659;49.234;-2.094;2023-07-30T07:04:19;100430.47;;;19.83;51.03
73242;BME280;65659;49.234;-2.094;2023-07-30T07:06:45;100434.91;;;20.00;50.62
73242;BME280;65659;49.234;-2.094;2023-07-30T07:09:10;100431.75;;;20.01;50.32
73242;BME280;65659;49.234;-2.094;2023-07-30T07:11:35;100426.53;;;20.02;50.65
73242;BME280;65659;49.234;-2.094;2023-07-30T07:14:00;100430.94;;;20.04;50.25
73242;BME280;65659;49.234;-2.094;2023-07-30T07:16:26;100441.48;;;20.01;49.97
73242;BME280;65659;49.234;-2.094;2023-07-30T07:18:51;100440.18;;;19.99;49.80
73242;BME280;65659;49.234;-2.094;2023-07-30T07:21:17;100449.36;;;19.86;50.03
73242;BME280;65659;49.234;-2.094;2023-07-30T07:23:42;100455.39;;;20.05;49.67
73242;BME280;65659;49.234;-2.094;2023-07-30T07:26:08;100456.45;;;19.57;49.43
73242;BME280;65659;49.234;-2.094;2023-07-30T07:28:33;100453.34;;;19.90;49.31
73242;BME280;65659;49.234;-2.094;2023-07-30T07:30:59;100455.18;;;20.20;48.66
73242;BME280;65659;49.234;-2.094;2023-07-30T07:33:24;100462.74;;;20.27;48.39
73242;BME280;65659;49.234;-2.094;2023-07-30T07:35:50;100458.69;;;20.53;47.80
73242;BME280;65659;49.234;-2.094;2023-07-30T07:38:16;100453.76;;;20.76;47.34
73242;BME280;65659;49.234;-2.094;2023-07-30T07:40:41;100460.61;;;20.87;46.89
73242;BME280;65659;49.234;-2.094;2023-07-30T07:43:07;100457.88;;;20.79;46.40
73242;BME280;65659;49.234;-2.094;2023-07-30T07:45:33;100461.76;;;21.01;46.22
73242;BME280;65659;49.234;-2.094;2023-07-30T07:47:57;100460.83;;;20.83;46.68
73242;BME280;65659;49.234;-2.094;2023-07-30T07:50:23;100455.55;;;20.88;46.40
73242;BME280;65659;49.234;-2.094;2023-07-30T07:52:48;100452.06;;;20.59;46.62
73242;BME280;65659;49.234;-2.094;2023-07-30T07:55:14;100458.93;;;21.37;46.44
73242;BME280;65659;49.234;-2.094;2023-07-30T07:57:39;100451.01;;;20.77;46.53
73242;BME280;65659;49.234;-2.094;2023-07-30T08:00:06;100464.17;;;20.89;46.64
73242;BME280;65659;49.234;-2.094;2023-07-30T08:02:30;100467.09;;;20.47;47.03
73242;BME280;65659;49.234;-2.094;2023-07-30T08:04:56;100463.80;;;20.57;47.49
73242;BME280;65659;49.234;-2.094;2023-07-30T08:07:22;100471.55;;;21.02;47.44
73242;BME280;65659;49.234;-2.094;2023-07-30T08:09:47;100477.40;;;21.01;47.71
73242;BME280;65659;49.234;-2.094;2023-07-30T08:12:12;100465.40;;;20.71;47.66
73242;BME280;65659;49.234;-2.094;2023-07-30T08:14:38;100472.46;;;21.18;47.83
73242;BME280;65659;49.234;-2.094;2023-07-30T08:17:03;100470.58;;;21.02;48.27
73242;BME280;65659;49.234;-2.094;2023-07-30T08:19:29;100469.65;;;20.72;48.80
73242;BME280;65659;49.234;-2.094;2023-07-30T08:21:55;100469.99;;;20.91;48.93
73242;BME280;65659;49.234;-2.094;2023-07-30T08:24:20;100479.79;;;20.56;48.96
73242;BME280;65659;49.234;-2.094;2023-07-30T08:26:46;100481.16;;;20.39;49.47
73242;BME280;65659;49.234;-2.094;2023-07-30T08:29:11;100469.33;;;20.52;49.27
73242;BME280;65659;49.234;-2.094;2023-07-30T08:31:37;100482.71;;;20.82;49.16
73242;BME280;65659;49.234;-2.094;2023-07-30T08:34:02;100477.48;;;20.48;49.34
73242;BME280;65659;49.234;-2.094;2023-07-30T08:36:27;100478.02;;;20.69;49.75
73242;BME280;65659;49.234;-2.094;2023-07-30T08:38:53;100473.35;;;20.65;50.01
73242;BME280;65659;49.234;-2.094;2023-07-30T08:41:18;100475.43;;;20.53;50.08
73242;BME280;65659;49.234;-2.094;2023-07-30T08:43:44;100476.04;;;20.46;50.18
73242;BME280;65659;49.234;-2.094;2023-07-30T08:46:09;100476.37;;;20.30;50.43
73242;BME280;65659;49.234;-2.094;2023-07-30T08:48:34;100483.73;;;20.24;50.55
73242;BME280;65659;49.234;-2.094;2023-07-30T08:51:00;100479.77;;;20.11;50.43
73242;BME280;65659;49.234;-2.094;2023-07-30T08:53:26;100481.99;;;20.19;50.25
73242;BME280;65659;49.234;-2.094;2023-07-30T08:55:51;100479.91;;;20.44;50.26
73242;BME280;65659;49.234;-2.094;2023-07-30T08:58:16;100486.70;;;20.28;50.60
73242;BME280;65659;49.234;-2.094;2023-07-30T09:00:42;100500.12;;;20.06;50.79
73242;BME280;65659;49.234;-2.094;2023-07-30T09:03:07;100503.28;;;20.46;51.05
73242;BME280;65659;49.234;-2.094;2023-07-30T09:05:32;100494.37;;;20.47;51.35
73242;BME280;65659;49.234;-2.094;2023-07-30T09:07:58;100502.06;;;20.14;51.42
73242;BME280;65659;49.234;-2.094;2023-07-30T09:10:23;100505.58;;;20.17;51.70
73242;BME280;65659;49.234;-2.094;2023-07-30T09:12:52;100501.53;;;20.45;51.82
73242;BME280;65659;49.234;-2.094;2023-07-30T09:15:14;100506.25;;;20.60;51.83
73242;BME280;65659;49.234;-2.094;2023-07-30T09:17:40;100503.90;;;20.47;52.17
73242;BME280;65659;49.234;-2.094;2023-07-30T09:20:07;100500.38;;;20.43;52.19
73242;BME280;65659;49.234;-2.094;2023-07-30T09:22:33;100500.39;;;20.62;51.98
73242;BME280;65659;49.234;-2.094;2023-07-30T09:24:57;100500.89;;;20.34;52.11
73242;BME280;65659;49.234;-2.094;2023-07-30T09:27:23;100495.00;;;20.76;51.89
73242;BME280;65659;49.234;-2.094;2023-07-30T09:29:51;100493.48;;;20.72;51.65
73242;BME280;65659;49.234;-2.094;2023-07-30T09:32:14;100496.82;;;20.82;51.47
73242;BME280;65659;49.234;-2.094;2023-07-30T09:34:44;100499.50;;;20.91;51.26
73242;BME280;65659;49.234;-2.094;2023-07-30T09:37:05;100498.08;;;21.15;51.35
73242;BME280;65659;49.234;-2.094;2023-07-30T09:39:30;100502.97;;;20.93;51.26
73242;BME280;65659;49.234;-2.094;2023-07-30T09:42:00;100510.11;;;20.89;51.38
73242;BME280;65659;49.234;-2.094;2023-07-30T09:44:21;100495.63;;;21.42;50.97
73242;BME280;65659;49.234;-2.094;2023-07-30T09:46:48;100505.50;;;21.31;50.65
73242;BME280;65659;49.234;-2.094;2023-07-30T09:49:12;100506.98;;;21.24;50.76
73242;BME280;65659;49.234;-2.094;2023-07-30T09:51:38;100515.77;;;21.21;50.71
73242;BME280;65659;49.234;-2.094;2023-07-30T09:54:03;100514.59;;;21.06;50.95
73242;BME280;65659;49.234;-2.094;2023-07-30T09:56:29;100512.63;;;20.79;51.35
73242;BME280;65659;49.234;-2.094;2023-07-30T09:58:55;100519.00;;;20.44;51.50
73242;BME280;65659;49.234;-2.094;2023-07-30T10:01:23;100512.35;;;20.54;51.86
73242;BME280;65659;49.234;-2.094;2023-07-30T10:03:46;100520.30;;;20.59;51.89
73242;BME280;65659;49.234;-2.094;2023-07-30T10:06:11;100521.19;;;20.41;51.79
73242;BME280;65659;49.234;-2.094;2023-07-30T10:08:38;100519.65;;;20.81;51.48
73242;BME280;65659;49.234;-2.094;2023-07-30T10:11:03;100530.50;;;20.90;51.68
73242;BME280;65659;49.234;-2.094;2023-07-30T10:13:33;100527.81;;;20.58;51.79
73242;BME280;65659;49.234;-2.094;2023-07-30T10:15:54;100532.82;;;20.46;52.17
73242;BME280;65659;49.234;-2.094;2023-07-30T10:18:19;100531.88;;;20.25;52.52
73242;BME280;65659;49.234;-2.094;2023-07-30T10:20:52;100542.13;;;20.38;52.39
73242;BME280;65659;49.234;-2.094;2023-07-30T10:23:10;100535.19;;;20.42;52.31
73242;BME280;65659;49.234;-2.094;2023-07-30T10:25:45;100556.53;;;20.69;52.38
73242;BME280;65659;49.234;-2.094;2023-07-30T10:28:01;100557.85;;;20.51;52.31
73242;BME280;65659;49.234;-2.094;2023-07-30T10:30:31;100552.91;;;20.41;52.70
73242;BME280;65659;49.234;-2.094;2023-07-30T10:33:01;100557.12;;;20.34;52.96
73242;BME280;65659;49.234;-2.094;2023-07-30T10:35:34;100552.59;;;20.42;52.89
73242;BME280;65659;49.234;-2.094;2023-07-30T10:37:45;100560.46;;;20.59;52.68
73242;BME280;65659;49.234;-2.094;2023-07-30T10:40:15;100549.30;;;20.46;52.98
73242;BME280;65659;49.234;-2.094;2023-07-30T10:42:34;100560.37;;;20.49;53.24
73242;BME280;65659;49.234;-2.094;2023-07-30T10:45:00;100566.63;;;20.51;53.62
73242;BME280;65659;49.234;-2.094;2023-07-30T10:47:27;100563.47;;;20.33;54.73
73242;BME280;65659;49.234;-2.094;2023-07-30T10:49:51;100567.40;;;20.02;55.03
73242;BME280;65659;49.234;-2.094;2023-07-30T10:52:16;100572.12;;;19.82;55.39
73242;BME280;65659;49.234;-2.094;2023-07-30T10:54:42;100574.89;;;20.04;55.35
73242;BME280;65659;49.234;-2.094;2023-07-30T10:57:07;100575.62;;;19.83;55.66
73242;BME280;65659;49.234;-2.094;2023-07-30T10:59:34;100573.35;;;20.04;55.71
73242;BME280;65659;49.234;-2.094;2023-07-30T11:01:59;100571.11;;;20.06;55.61
73242;BME280;65659;49.234;-2.094;2023-07-30T11:04:24;100571.35;;;19.94;56.00
73242;BME280;65659;49.234;-2.094;2023-07-30T11:06:51;100573.82;;;19.88;56.21
73242;BME280;65659;49.234;-2.094;2023-07-30T11:09:19;100574.31;;;19.84;56.48
73242;BME280;65659;49.234;-2.094;2023-07-30T11:11:41;100580.39;;;19.87;56.46
73242;BME280;65659;49.234;-2.094;2023-07-30T11:14:14;100589.78;;;19.76;56.78
73242;BME280;65659;49.234;-2.094;2023-07-30T11:16:32;100587.89;;;19.77;56.88
73242;BME280;65659;49.234;-2.094;2023-07-30T11:18:57;100582.52;;;19.86;56.78
73242;BME280;65659;49.234;-2.094;2023-07-30T11:21:22;100585.48;;;19.81;57.02
73242;BME280;65659;49.234;-2.094;2023-07-30T11:23:50;100581.63;;;19.74;56.68
73242;BME280;65659;49.234;-2.094;2023-07-30T11:26:15;100581.16;;;20.00;56.47
73242;BME280;65659;49.234;-2.094;2023-07-30T11:28:39;100581.75;;;19.95;56.54
73242;BME280;65659;49.234;-2.094;2023-07-30T11:31:05;100589.39;;;19.96;56.66
73242;BME280;65659;49.234;-2.094;2023-07-30T11:33:29;100579.44;;;20.10;56.57
73242;BME280;65659;49.234;-2.094;2023-07-30T11:35:55;100582.17;;;20.26;56.35
73242;BME280;65659;49.234;-2.094;2023-07-30T11:38:20;100584.49;;;20.07;56.13
73242;BME280;65659;49.234;-2.094;2023-07-30T11:40:45;100581.57;;;20.10;56.32
73242;BME280;65659;49.234;-2.094;2023-07-30T11:43:10;100585.06;;;20.48;56.39
73242;BME280;65659;49.234;-2.094;2023-07-30T11:45:36;100571.05;;;20.46;55.65
73242;BME280;65659;49.234;-2.094;2023-07-30T11:48:08;100576.39;;;20.89;55.20
73242;BME280;65659;49.234;-2.094;2023-07-30T11:50:27;100578.47;;;20.89;55.26
73242;BME280;65659;49.234;-2.094;2023-07-30T11:52:55;100584.39;;;20.67;54.71
73242;BME280;65659;49.234;-2.094;2023-07-30T11:55:18;100584.63;;;20.94;54.57
73242;BME280;65659;49.234;-2.094;2023-07-30T11:57:44;100587.88;;;21.29;54.29
73242;BME280;65659;49.234;-2.094;2023-07-30T12:00:10;100583.71;;;20.86;54.50
73242;BME280;65659;49.234;-2.094;2023-07-30T12:02:35;100578.15;;;21.22;54.08
73242;BME280;65659;49.234;-2.094;2023-07-30T12:05:00;100586.04;;;21.21;53.82
73242;BME280;65659;49.234;-2.094;2023-07-30T12:07:26;100593.21;;;21.17;53.87
73242;BME280;65659;49.234;-2.094;2023-07-30T12:09:51;100566.26;;;21.49;53.24
73242;BME280;65659;49.234;-2.094;2023-07-30T12:12:17;100588.07;;;21.39;52.95
73242;BME280;65659;49.234;-2.094;2023-07-30T12:14:44;100594.95;;;21.88;52.84
73242;BME280;65659;49.234;-2.094;2023-07-30T12:17:07;100592.70;;;21.90;52.21
73242;BME280;65659;49.234;-2.094;2023-07-30T12:19:32;100589.09;;;22.15;51.85
73242;BME280;65659;49.234;-2.094;2023-07-30T12:21:58;100583.59;;;21.92;51.56
73242;BME280;65659;49.234;-2.094;2023-07-30T12:24:22;100580.48;;;22.03;51.35
73242;BME280;65659;49.234;-2.094;2023-07-30T12:26:48;100588.82;;;22.60;50.83
73242;BME280;65659;49.234;-2.094;2023-07-30T12:29:13;100591.56;;;22.10;50.87
73242;BME280;65659;49.234;-2.094;2023-07-30T12:31:38;100588.36;;;22.26;51.16